Time;durP1;ratioP1;P1;durP2;ratioP2;P2;SDS_P1;SDS_P2;PMS_P1;PMS_P2;Temp;Humidity;BMP_temperature;BMP_pressure;BME280_temperature;BME280_humidity;BME280_pressure;Samples;Min_cycle;Max_cycle;Signal;HPM_P1;HPM_P2
2022/08/15 00:00:41;;;;;;;20.40;13.73;;;;;;;24.30;51.13;100148.91;5014517;28;20437;-60
2022/08/15 00:03:29;;;;;;;20.45;14.00;;;;;;;24.15;51.77;100155.91;5014333;28;20233;-60
2022/08/15 00:05:56;;;;;;;21.20;14.77;;;;;;;23.99;52.65;100134.66;5014768;28;20041;-60
2022/08/15 00:08:22;;;;;;;22.73;15.27;;;;;;;23.96;52.72;100123.38;5014700;28;20026;-60
2022/08/15 00:10:47;;;;;;;20.60;14.23;;;;;;;23.97;52.71;100144.75;5014399;28;20109;-60
2022/08/15 00:13:23;;;;;;;21.13;14.82;;;;;;;23.98;52.16;100144.34;5014472;28;20049;-59
2022/08/15 00:15:51;;;;;;;21.67;14.05;;;;;;;23.93;52.68;100130.63;5014249;28;20034;-59
2022/08/15 00:18:18;;;;;;;20.42;13.88;;;;;;;23.92;53.39;100167.75;4996648;28;20034;-59
2022/08/15 00:20:43;;;;;;;20.98;14.50;;;;;;;23.81;53.62;100159.38;5014253;28;20034;-59
2022/08/15 00:23:13;;;;;;;21.30;14.48;;;;;;;23.78;53.81;100169.47;5014004;28;20031;-59
2022/08/15 00:25:40;;;;;;;21.42;14.93;;;;;;;23.71;53.99;100168.72;4996081;28;20030;-59
2022/08/15 00:28:07;;;;;;;22.60;15.02;;;;;;;23.56;55.02;100142.59;5013919;28;20026;-60
2022/08/15 00:30:34;;;;;;;21.45;14.18;;;;;;;23.47;54.81;100140.25;5014131;28;20034;-59
2022/08/15 00:33:00;;;;;;;21.75;14.25;;;;;;;23.41;55.67;100150.34;5014129;28;20223;-59
2022/08/15 00:35:39;;;;;;;21.67;14.15;;;;;;;23.41;54.98;100142.69;5014162;28;20060;-60
2022/08/15 00:38:17;;;;;;;23.08;14.57;;;;;;;23.40;55.15;100141.09;5014368;28;20068;-60
2022/08/15 00:43:41;;;;;;;21.40;14.60;;;;;;;23.36;56.05;100146.75;5013856;28;20115;-60
2022/08/15 00:46:09;;;;;;;20.63;14.15;;;;;;;23.37;55.78;100141.91;5013941;28;20281;-60
2022/08/15 00:48:43;;;;;;;21.92;14.20;;;;;;;23.37;55.88;100141.91;5013303;28;20493;-60
2022/08/15 00:51:33;;;;;;;21.63;14.13;;;;;;;23.46;55.14;100156.34;5013897;28;20068;-60
2022/08/15 00:54:13;;;;;;;21.17;14.63;;;;;;;23.50;55.10;100154.34;5014120;28;20022;-60
2022/08/15 00:56:45;;;;;;;22.70;15.30;;;;;;;23.48;55.25;100144.66;5012092;28;20117;-60
2022/08/15 00:59:14;;;;;;;23.00;16.55;;;;;;;23.45;55.15;100146.28;4995709;28;20025;-59
2022/08/15 01:01:41;;;;;;;23.42;17.17;;;;;;;23.43;55.46;100143.06;5013394;28;20049;-60
2022/08/15 01:04:08;;;;;;;24.02;17.27;;;;;;;23.47;55.52;100148.72;5013855;28;20038;-59
2022/08/15 01:06:37;;;;;;;25.50;17.98;;;;;;;23.45;55.77;100154.75;5013747;28;20172;-59
2022/08/15 01:09:05;;;;;;;23.42;17.38;;;;;;;23.43;55.68;100143.06;5013529;28;20026;-59
2022/08/15 01:11:36;;;;;;;24.33;17.63;;;;;;;23.27;56.23;100128.66;5012475;28;20029;-60
2022/08/15 01:14:06;;;;;;;24.35;18.55;;;;;;;23.34;56.18;100139.88;5013515;28;20030;-60
2022/08/15 01:16:33;;;;;;;24.10;18.27;;;;;;;23.24;57.10;100137.94;5013300;28;20123;-60
2022/08/15 01:18:58;;;;;;;23.77;17.60;;;;;;;23.12;57.12;100142.81;5013450;28;20032;-60
2022/08/15 01:21:37;;;;;;;24.48;18.27;;;;;;;23.10;56.88;100136.75;5012784;28;20025;-61
2022/08/15 01:24:08;;;;;;;25.40;18.80;;;;;;;23.01;57.83;100131.56;5013214;28;20036;-58
2022/08/15 01:26:35;;;;;;;26.20;18.60;;;;;;;22.93;58.27;100123.53;5013030;28;20025;-59
2022/08/15 01:29:01;;;;;;;23.85;18.23;;;;;;;22.92;57.88;100124.75;5013339;28;20021;-59
2022/08/15 01:31:29;;;;;;;25.88;17.92;;;;;;;22.94;58.20;100134.41;5013381;28;20022;-58
2022/08/15 01:33:59;;;;;;;23.90;17.50;;;;;;;22.88;58.08;100131.19;5012667;28;20030;-59
2022/08/15 01:36:28;;;;;;;26.02;19.38;;;;;;;22.92;58.22;100130.41;5012607;28;20025;-59
2022/08/15 01:39:01;;;;;;;26.17;19.42;;;;;;;22.93;58.03;100124.34;5013297;28;20040;-59
2022/08/15 01:41:33;;;;;;;24.77;18.75;;;;;;;22.94;58.22;100127.97;5012976;28;20493;-59
2022/08/15 01:44:35;;;;;;;24.48;18.55;;;;;;;23.00;57.33;100126.31;5012987;28;20040;-59
2022/08/15 01:47:03;;;;;;;24.00;18.08;;;;;;;22.97;57.92;100129.97;5012733;28;20069;-59
2022/08/15 01:49:35;;;;;;;24.33;18.02;;;;;;;22.95;57.45;100123.94;5012822;28;20053;-59
2022/08/15 01:52:04;;;;;;;25.40;18.42;;;;;;;22.86;57.49;100113.88;5012889;28;20041;-60
2022/08/15 01:54:32;;;;;;;25.42;17.98;;;;;;;;;;5012318;28;20438;-60
2022/08/15 01:56:58;;;;;;;23.92;16.83;;;;;;;;;;5012719;28;20033;-60
2022/08/15 01:59:23;;;;;;;24.63;17.83;;;;;;;22.85;56.92;100120.75;5012650;28;20327;-60
2022/08/15 02:01:59;;;;;;;22.88;17.33;;;;;;;22.83;56.58;100120.34;5012174;28;20026;-60
2022/08/15 02:04:28;;;;;;;24.98;17.83;;;;;;;22.79;56.64;100121.59;5012124;28;20037;-60
2022/08/15 02:06:54;;;;;;;23.25;17.77;;;;;;;22.76;56.41;100126.03;5012398;28;20052;-60
2022/08/15 02:09:20;;;;;;;23.60;17.63;;;;;;;22.72;56.50;100131.66;5012390;28;20526;-60
2022/08/15 02:11:47;;;;;;;23.48;17.25;;;;;;;22.68;56.90;100144.16;4994600;28;20117;-60
2022/08/15 02:14:13;;;;;;;24.65;16.90;;;;;;;22.63;56.52;100145.38;5012387;28;20100;-60
2022/08/15 02:16:40;;;;;;;24.67;17.60;;;;;;;22.59;56.71;100145.38;5012357;28;20474;-60
2022/08/15 02:19:08;;;;;;;22.40;17.20;;;;;;;22.47;56.57;100140.19;5011825;28;20033;-60
2022/08/15 02:21:35;;;;;;;23.73;16.60;;;;;;;22.49;56.18;100139.78;5011692;28;20115;-60
2022/08/15 02:24:02;;;;;;;23.13;16.20;;;;;;;22.46;55.63;100137.75;5011759;28;20034;-60
2022/08/15 02:26:27;;;;;;;22.17;15.73;;;;;;;22.43;55.22;100150.66;4993999;28;20018;-60
2022/08/15 02:28:53;;;;;;;22.08;14.85;;;;;;;22.37;54.85;100138.16;5011937;28;20032;-60
2022/08/15 02:31:21;;;;;;;21.52;13.75;;;;;;;22.40;54.70;100149.47;5012212;28;20069;-60
2022/08/15 02:33:53;;;;;;;20.75;14.05;;;;;;;22.35;54.06;100140.56;5011731;28;20030;-60
2022/08/15 02:36:20;;;;;;;20.45;13.57;;;;;;;22.34;53.71;100147.41;5012059;28;20030;-60
2022/08/15 02:38:49;;;;;;;20.52;13.32;;;;;;;22.23;53.17;100139.00;5012174;28;20047;-60
2022/08/15 02:41:22;;;;;;;20.58;12.77;;;;;;;22.32;52.56;100142.19;5012136;28;20026;-60
2022/08/15 02:43:49;;;;;;;19.17;12.25;;;;;;;22.30;51.86;100144.59;5011731;28;20030;-59
2022/08/15 02:46:16;;;;;;;19.98;12.65;;;;;;;22.24;51.83;100147.03;5011937;28;20470;-59
2022/08/15 02:48:44;;;;;;;20.50;12.40;;;;;;;22.24;51.32;100140.59;4993500;28;20052;-59
2022/08/15 02:51:12;;;;;;;20.23;12.05;;;;;;;22.22;51.11;100143.00;5011823;28;20026;-59
2022/08/15 02:53:38;;;;;;;20.88;11.35;;;;;;;22.21;51.15;100145.00;5011702;28;20060;-60
2022/08/15 02:56:06;;;;;;;19.15;11.25;;;;;;;22.18;50.87;100153.47;5011657;28;20049;-60
2022/08/15 02:58:33;;;;;;;18.85;10.98;;;;;;;22.18;50.85;100147.81;5011681;28;20029;-60
2022/08/15 03:00:59;;;;;;;18.83;11.40;;;;;;;22.17;50.33;100149.84;4994225;28;20508;-60
2022/08/15 03:03:26;;;;;;;18.48;10.82;;;;;;;22.16;50.54;100148.25;5011938;28;20088;-60
2022/08/15 03:05:52;;;;;;;20.05;11.18;;;;;;;22.11;50.46;100149.44;5011989;28;20057;-60
2022/08/15 03:08:19;;;;;;;18.95;11.02;;;;;;;22.12;50.07;100147.44;5011692;28;20022;-59
2022/08/15 03:10:44;;;;;;;19.38;10.70;;;;;;;22.10;49.75;100159.09;5012010;28;20030;-60
2022/08/15 03:13:13;;;;;;;19.48;11.18;;;;;;;22.02;49.72;100142.59;5012061;28;20033;-59
2022/08/15 03:15:42;;;;;;;18.92;10.55;;;;;;;22.02;49.64;100148.22;5011703;28;20022;-59
2022/08/15 03:18:09;;;;;;;17.52;11.05;;;;;;;22.01;50.03;100141.81;5011777;28;20052;-59
2022/08/15 03:20:35;;;;;;;17.98;10.18;;;;;;;21.95;49.93;100138.56;5011416;28;20076;-59
2022/08/15 03:23:01;;;;;;;19.15;10.52;;;;;;;21.93;49.96;100137.38;5011482;28;20045;-59
2022/08/15 03:25:26;;;;;;;18.08;10.23;;;;;;;21.91;49.86;100146.25;5011660;28;20034;-63
2022/08/15 03:27:55;;;;;;;19.98;9.50;;;;;;;21.90;49.51;100147.44;5011374;28;20028;-59
2022/08/15 03:30:21;;;;;;;18.48;9.80;;;;;;;21.86;49.97;100149.44;5011755;28;20029;-59
2022/08/15 03:32:50;;;;;;;19.90;10.00;;;;;;;21.78;49.96;100145.00;5011404;28;20038;-59
2022/08/15 03:35:17;;;;;;;17.40;9.93;;;;;;;21.77;49.84;100149.81;5014589;28;20454;-59
2022/08/15 03:37:42;;;;;;;19.00;10.18;;;;;;;21.75;50.23;100151.44;5014688;28;20022;-59
2022/08/15 03:40:10;;;;;;;17.45;10.20;;;;;;;21.62;50.51;100160.28;4996989;28;20561;-59
2022/08/15 03:42:35;;;;;;;18.00;10.77;;;;;;;21.62;50.26;100157.47;5014970;28;20048;-59
2022/08/15 03:45:03;;;;;;;17.05;9.73;;;;;;;21.53;50.63;100153.38;5014688;28;20022;-59
2022/08/15 03:47:29;;;;;;;18.80;10.07;;;;;;;21.55;50.88;100156.59;5014724;28;20018;-59
2022/08/15 03:49:55;;;;;;;16.92;9.32;;;;;;;21.49;50.58;100148.53;5014672;28;20164;-59
2022/08/15 03:52:20;;;;;;;18.58;9.40;;;;;;;21.46;50.82;100140.91;5014936;28;20030;-59
2022/08/15 03:54:46;;;;;;;20.10;9.98;;;;;;;21.44;50.80;100139.69;4996860;28;20041;-59
2022/08/15 03:57:12;;;;;;;17.45;10.00;;;;;;;21.37;50.67;100132.03;5014916;28;20114;-58
2022/08/15 03:59:37;;;;;;;19.38;9.82;;;;;;;21.35;51.23;100142.88;5014670;28;20373;-59
2022/08/15 04:02:08;;;;;;;19.83;9.82;;;;;;;21.37;50.76;100148.09;5014693;28;20112;-59
2022/08/15 04:04:34;;;;;;;18.23;9.98;;;;;;;21.24;51.19;100150.47;5014369;28;20057;-59
2022/08/15 04:06:59;;;;;;;18.85;10.00;;;;;;;21.16;51.48;100155.28;5014662;28;20056;-59
2022/08/15 04:09:24;;;;;;;18.17;10.13;;;;;;;21.08;51.74;100164.88;5014605;28;20022;-59
2022/08/15 04:11:50;;;;;;;17.73;10.10;;;;;;;21.01;52.07;100162.84;5014326;28;20532;-59
2022/08/15 04:14:15;;;;;;;17.30;10.07;;;;;;;20.99;52.25;100168.06;5012785;28;20029;-60
2022/08/15 04:16:40;;;;;;;18.13;9.85;;;;;;;20.91;52.45;100163.63;5014488;28;20026;-60
2022/08/15 04:19:06;;;;;;;18.10;10.35;;;;;;;20.94;52.58;100162.81;5014284;28;20109;-61
2022/08/15 04:21:32;;;;;;;19.00;9.90;;;;;;;20.88;52.43;100159.56;5014336;28;20049;-59
2022/08/15 04:23:57;;;;;;;18.35;10.55;;;;;;;20.86;52.82;100164.78;5014311;28;20092;-60
2022/08/15 04:26:23;;;;;;;17.25;10.18;;;;;;;20.77;52.76;100164.34;5014385;28;20042;-59
2022/08/15 04:28:49;;;;;;;18.30;10.77;;;;;;;20.74;52.61;100171.53;5013877;28;20416;-59
2022/08/15 04:31:17;;;;;;;19.45;10.90;;;;;;;20.76;53.00;100171.16;5014133;28;20041;-59
2022/08/15 04:33:44;;;;;;;19.92;10.60;;;;;;;20.70;52.66;100171.47;5013856;28;20030;-59
2022/08/15 04:36:14;;;;;;;19.23;10.85;;;;;;;20.71;53.03;100178.72;5013941;28;20040;-59
2022/08/15 04:38:41;;;;;;;19.52;10.82;;;;;;;20.67;52.87;100182.72;5014019;28;20075;-59
2022/08/15 04:41:08;;;;;;;19.40;11.18;;;;;;;20.74;52.96;100182.78;5013574;28;20034;-59
2022/08/15 04:43:34;;;;;;;17.77;10.38;;;;;;;20.78;53.01;100180.00;5013797;28;20018;-59
2022/08/15 04:46:00;;;;;;;20.05;11.27;;;;;;;20.77;53.01;100169.97;4995872;28;20117;-59
2022/08/15 04:48:25;;;;;;;19.75;11.07;;;;;;;20.78;53.20;100169.56;5013140;28;20390;-58
2022/08/15 04:50:53;;;;;;;17.55;11.00;;;;;;;20.71;53.37;100164.66;5013359;28;20132;-58
2022/08/15 04:53:24;;;;;;;20.17;11.10;;;;;;;20.79;53.46;100173.97;5013674;28;20041;-59
2022/08/15 04:55:51;;;;;;;18.83;11.05;;;;;;;20.83;53.80;100176.81;5013739;28;20026;-58
2022/08/15 04:58:17;;;;;;;19.05;10.48;;;;;;;20.85;53.72;100178.03;5013384;28;20025;-59
2022/08/15 05:00:50;;;;;;;20.08;11.15;;;;;;;20.86;53.67;100176.03;5013201;28;20060;-60
2022/08/15 05:03:18;;;;;;;18.98;10.85;;;;;;;20.84;53.82;100175.63;5013453;28;20018;-59
2022/08/15 05:05:48;;;;;;;19.17;11.02;;;;;;;20.91;54.09;100177.66;5013440;28;20022;-58
2022/08/15 05:08:15;;;;;;;19.10;11.15;;;;;;;20.94;54.34;100182.47;5013303;28;20113;-59
2022/08/15 05:10:42;;;;;;;18.48;10.93;;;;;;;20.96;54.11;100183.72;5012872;28;20033;-60
2022/08/15 05:13:22;;;;;;;18.40;10.60;;;;;;;21.00;53.68;100184.53;5013518;28;20048;-59
2022/08/15 05:15:48;;;;;;;18.73;10.50;;;;;;;21.02;54.60;100190.56;5012934;28;20049;-60
2022/08/15 05:18:14;;;;;;;20.70;10.73;;;;;;;21.10;54.43;100193.41;5013131;28;20367;-59
2022/08/15 05:20:41;;;;;;;18.90;10.48;;;;;;;21.11;54.96;100184.56;5013456;28;20022;-60
2022/08/15 05:23:10;;;;;;;21.75;10.90;;;;;;;21.13;54.78;100182.19;5012887;28;20034;-60
2022/08/15 05:25:38;;;;;;;18.42;10.30;;;;;;;21.31;54.67;100196.31;5012875;28;20030;-59
2022/08/15 05:28:04;;;;;;;18.15;10.15;;;;;;;21.40;54.65;100184.69;5012869;28;20080;-59
2022/08/15 05:30:30;;;;;;;18.20;10.60;;;;;;;21.51;54.52;100188.34;5012686;28;20034;-59
2022/08/15 05:33:10;;;;;;;18.40;10.38;;;;;;;21.62;54.38;100188.41;5013123;28;20407;-59
2022/08/15 05:35:41;;;;;;;19.70;10.13;;;;;;;21.74;54.56;100192.88;5012933;28;20307;-59
2022/08/15 05:38:11;;;;;;;17.52;10.35;;;;;;;21.77;54.56;100192.03;5012372;28;20034;-60
2022/08/15 05:41:21;;;;;;;18.25;10.68;;;;;;;21.89;53.98;100195.69;5012522;28;20218;-59
2022/08/15 05:44:08;;;;;;;18.23;10.52;;;;;;;21.90;54.65;100205.75;4997022;28;20053;-59
2022/08/15 05:46:43;;;;;;;18.98;10.60;;;;;;;21.92;54.81;100212.59;5013168;28;20025;-59
2022/08/15 05:49:18;;;;;;;19.83;10.93;;;;;;;21.94;54.67;100210.19;5012215;28;20133;-59
2022/08/15 05:52:05;;;;;;;18.70;10.15;;;;;;;21.91;54.90;100216.63;5013213;28;20048;-60
2022/08/15 05:54:56;;;;;;;20.92;10.85;;;;;;;21.91;55.10;100205.38;5012818;28;20034;-60
2022/08/15 05:57:35;;;;;;;20.10;10.90;;;;;;;21.83;55.64;100200.91;5011971;28;20068;-61
2022/08/15 06:00:06;;;;;;;18.08;10.90;;;;;;;21.88;56.21;100208.16;5012783;28;20029;-60
2022/08/15 06:02:36;;;;;;;19.00;11.52;;;;;;;21.82;56.77;100210.59;5012527;28;20030;-61
2022/08/15 06:05:11;;;;;;;18.70;11.50;;;;;;;21.86;56.96;100208.56;5012151;28;20068;-60
2022/08/15 06:07:39;;;;;;;24.52;11.52;;;;;;;21.76;57.61;100201.72;5012328;28;20095;-60
2022/08/15 06:10:13;;;;;;;18.48;10.65;;;;;;;21.79;57.38;100200.91;5012269;28;20155;-59
2022/08/15 06:12:44;;;;;;;21.40;11.15;;;;;;;21.85;57.44;100217.41;5012387;28;20022;-60
2022/08/15 06:15:25;;;;;;;18.75;10.90;;;;;;;21.89;57.14;100218.22;5012101;28;20473;-59
2022/08/15 06:17:57;;;;;;;18.15;11.02;;;;;;;21.83;57.78;100220.63;5012451;28;20153;-60
2022/08/15 06:20:36;;;;;;;19.60;10.60;;;;;;;21.88;57.63;100217.41;5011842;28;20026;-60
2022/08/15 06:23:27;;;;;;;18.60;10.48;;;;;;;21.84;57.98;100221.44;5011774;28;20029;-60
2022/08/15 06:25:59;;;;;;;21.35;10.98;;;;;;;21.94;58.00;100229.09;5012108;28;20076;-60
2022/08/15 06:28:52;;;;;;;18.90;10.63;;;;;;;21.92;58.71;100232.28;5011986;28;20439;-59
2022/08/15 06:31:35;;;;;;;20.47;11.03;;;;;;;21.99;58.05;100231.50;5012048;28;20477;-60
2022/08/15 06:34:22;;;;;;;20.08;10.82;;;;;;;22.02;58.12;100221.44;5011906;28;20032;-58
2022/08/15 06:36:59;;;;;;;18.90;10.55;;;;;;;22.06;58.25;100220.25;5012162;28;20069;-59
2022/08/15 06:39:52;;;;;;;20.20;10.60;;;;;;;22.13;58.01;100214.66;4993913;28;20045;-59
2022/08/15 06:42:34;;;;;;;21.07;11.00;;;;;;;22.21;58.07;100220.28;5012023;28;20108;-59
2022/08/15 06:45:11;;;;;;;19.83;11.15;;;;;;;22.20;58.12;100225.09;5011802;28;20030;-59
2022/08/15 06:47:38;;;;;;;21.00;11.40;;;;;;;22.25;58.54;100227.53;5012015;28;20088;-60
2022/08/15 06:50:11;;;;;;;19.98;11.13;;;;;;;22.25;58.95;100235.16;5011772;28;20046;-60
2022/08/15 06:52:37;;;;;;;20.60;11.38;;;;;;;22.29;59.10;100238.78;5012030;28;20030;-60
2022/08/15 06:55:03;;;;;;;21.73;11.75;;;;;;;22.27;59.15;100233.56;5011863;28;20021;-60
2022/08/15 06:57:41;;;;;;;19.80;11.68;;;;;;;22.26;59.20;100231.13;5011919;28;20481;-60
2022/08/15 07:00:15;;;;;;;20.10;12.25;;;;;;;22.35;59.30;100239.19;5011771;28;20064;-60
2022/08/15 07:03:02;;;;;;;19.25;11.40;;;;;;;22.39;58.92;100242.81;5011893;28;20030;-60
2022/08/15 07:05:41;;;;;;;19.77;11.82;;;;;;;22.45;59.15;100232.78;5011535;28;20026;-58
2022/08/15 07:08:34;;;;;;;20.95;11.88;;;;;;;22.48;58.65;100229.16;5011934;28;20049;-60
2022/08/15 07:11:09;;;;;;;21.80;12.02;;;;;;;22.51;59.14;100219.88;5015485;28;20509;-60
2022/08/15 07:13:56;;;;;;;21.33;12.68;;;;;;;22.52;58.99;100213.03;5015888;28;20144;-59
2022/08/15 07:16:34;;;;;;;20.30;12.00;;;;;;;22.62;58.91;100228.34;5015435;28;20041;-59
2022/08/15 07:19:01;;;;;;;20.45;11.45;;;;;;;22.78;58.83;100225.09;5015277;28;20058;-59
2022/08/15 07:21:26;;;;;;;20.08;11.95;;;;;;;22.89;58.29;100228.69;5015657;28;20116;-59
2022/08/15 07:24:09;;;;;;;19.83;11.57;;;;;;;22.95;58.50;100223.44;5015193;28;20577;-59
2022/08/15 07:26:52;;;;;;;20.87;11.97;;;;;;;22.95;58.54;100220.63;5015545;28;20033;-60
2022/08/15 07:29:27;;;;;;;20.40;11.70;;;;;;;23.09;57.97;100214.13;5015369;28;20045;-60
2022/08/15 07:32:01;;;;;;;21.92;11.60;;;;;;;23.10;58.07;100203.66;5015057;28;20066;-59
2022/08/15 07:34:27;;;;;;;20.95;11.93;;;;;;;23.16;58.25;100216.94;5015396;28;20089;-60
2022/08/15 07:37:02;;;;;;;20.35;12.05;;;;;;;23.15;57.99;100203.25;5015114;28;20104;-58
2022/08/15 07:39:34;;;;;;;21.65;12.05;;;;;;;23.21;58.51;100227.03;5015108;28;20045;-59
2022/08/15 07:42:15;;;;;;;19.90;12.38;;;;;;;23.12;58.36;100199.22;5014941;28;20100;-60
2022/08/15 07:44:50;;;;;;;21.77;12.73;;;;;;;23.13;59.02;100220.59;5015320;28;20026;-60
2022/08/15 07:47:22;;;;;;;19.88;12.60;;;;;;;23.09;59.15;100222.59;5015301;28;20165;-60
2022/08/15 07:49:59;;;;;;;22.45;13.48;;;;;;;23.21;58.46;100232.66;5015152;28;20056;-61
2022/08/15 07:52:24;;;;;;;21.70;13.02;;;;;;;23.27;58.86;100236.69;5014829;28;20040;-60
2022/08/15 07:54:55;;;;;;;21.35;13.05;;;;;;;23.29;59.02;100237.06;5015147;28;20029;-59
2022/08/15 07:57:27;;;;;;;22.23;12.90;;;;;;;23.31;58.62;100234.66;5014685;28;20474;-59
2022/08/15 08:00:08;;;;;;;21.48;12.85;;;;;;;23.43;58.23;100249.53;5015015;28;20048;-59
2022/08/15 08:02:42;;;;;;;20.17;13.30;;;;;;;23.49;58.24;100248.69;5014991;28;20493;-59
2022/08/15 08:05:07;;;;;;;;;;;;;;;23.64;57.17;100251.44;5015503;28;20057;-60
2022/08/15 08:07:43;;;;;;;21.45;13.45;;;;;;;23.62;57.72;100251.84;5014936;28;19999;-59
2022/08/15 08:10:21;;;;;;;20.83;13.02;;;;;;;23.68;57.80;100240.94;5014725;28;20033;-59
2022/08/15 08:13:02;;;;;;;21.13;13.27;;;;;;;23.81;57.73;100244.88;4997263;28;20033;-59
2022/08/15 08:15:40;;;;;;;23.73;13.48;;;;;;;24.10;57.17;100253.22;5014618;28;20048;-59
2022/08/15 08:18:13;;;;;;;21.38;12.77;;;;;;;24.30;56.09;100249.84;5014858;28;20153;-60
2022/08/15 08:20:53;;;;;;;22.33;13.80;;;;;;;24.51;55.49;100245.22;5013928;28;20438;-61
2022/08/15 08:23:24;;;;;;;22.42;13.52;;;;;;;24.55;54.87;100235.50;5014403;28;20108;-60
2022/08/15 08:25:52;;;;;;;21.23;12.77;;;;;;;24.60;55.21;100251.22;5014458;28;20037;-59
2022/08/15 08:28:32;;;;;;;22.08;13.43;;;;;;;24.64;55.04;100246.34;5014414;28;20103;-59
2022/08/15 08:31:21;;;;;;;22.45;13.65;;;;;;;24.67;55.01;100264.50;5014376;28;20374;-59
2022/08/15 08:34:05;;;;;;;23.55;14.52;;;;;;;24.63;54.91;100256.03;5014086;28;20079;-59
2022/08/15 08:36:52;;;;;;;23.95;14.55;;;;;;;24.49;55.37;100244.84;5014490;28;20026;-59
2022/08/15 08:39:26;;;;;;;22.65;14.30;;;;;;;24.48;54.99;100254.53;5014035;28;20077;-59
2022/08/15 08:42:15;;;;;;;22.05;14.45;;;;;;;24.47;54.96;100259.41;5014263;28;20053;-59
2022/08/15 08:44:56;;;;;;;21.33;13.80;;;;;;;24.50;55.17;100249.28;5014609;28;20428;-60
2022/08/15 08:47:37;;;;;;;22.25;13.32;;;;;;;24.57;54.82;100247.19;5013878;28;20080;-59
2022/08/15 08:50:21;;;;;;;22.63;13.77;;;;;;;24.59;54.70;100252.44;5014195;28;20049;-59
2022/08/15 08:53:19;;;;;;;21.55;13.70;;;;;;;24.56;54.72;100256.91;5014514;28;20129;-59
2022/08/15 08:55:50;;;;;;;22.40;13.98;;;;;;;24.50;54.99;100266.25;5010996;28;20042;-60
2022/08/15 08:58:19;;;;;;;23.60;14.30;;;;;;;24.44;55.46;100254.56;5014074;28;20025;-60
2022/08/15 09:00:48;;;;;;;21.92;14.40;;;;;;;24.34;55.45;100252.63;5013703;28;20035;-59
2022/08/15 09:03:22;;;;;;;19.95;13.45;;;;;;;24.35;55.83;100257.88;5013757;28;20037;-59
2022/08/15 09:05:53;;;;;;;22.75;13.13;;;;;;;24.35;55.59;100260.72;5013760;28;20109;-60
2022/08/15 09:08:51;;;;;;;21.00;13.00;;;;;;;24.37;55.52;100258.25;5013626;28;20481;-60
2022/08/15 09:11:41;;;;;;;20.92;12.93;;;;;;;24.36;55.81;100262.31;5009028;28;20144;-60
2022/08/15 09:14:23;;;;;;;20.77;12.80;;;;;;;24.41;55.85;100266.72;5013790;28;20037;-60
2022/08/15 09:16:52;;;;;;;22.45;13.15;;;;;;;24.38;56.17;100256.25;5013971;28;20022;-60
2022/08/15 09:19:26;;;;;;;20.35;12.27;;;;;;;24.45;56.08;100259.81;5013536;28;20564;-60
2022/08/15 09:21:51;;;;;;;;;;;;;;;24.57;55.02;100267.00;5014182;28;20026;-60
2022/08/15 09:24:19;;;;;;;21.00;12.73;;;;;;;24.33;56.14;100257.50;5013758;28;19963;-60
2022/08/15 09:27:26;;;;;;;21.05;12.23;;;;;;;24.26;56.42;100257.56;5013313;28;20373;-60
2022/08/15 09:29:57;;;;;;;20.98;12.63;;;;;;;24.08;57.96;100268.97;5013643;28;20129;-60
2022/08/15 09:32:23;;;;;;;23.92;13.43;;;;;;;23.97;59.37;100264.19;5012212;28;20018;-60
2022/08/15 09:35:14;;;;;;;21.87;12.37;;;;;;;23.95;59.86;100271.47;5013381;28;20033;-60
2022/08/15 09:38:05;;;;;;;23.92;12.65;;;;;;;23.97;60.29;100274.69;5013309;28;20464;-60
2022/08/15 09:40:56;;;;;;;28.00;13.57;;;;;;;24.03;60.22;100258.13;5013293;28;20025;-60
2022/08/15 09:43:27;;;;;;;22.73;13.07;;;;;;;24.06;61.24;100262.94;5012932;28;20041;-60
2022/08/15 09:46:29;;;;;;;21.65;13.02;;;;;;;24.14;59.79;100265.31;5013503;28;20034;-60
2022/08/15 09:49:20;;;;;;;22.80;13.35;;;;;;;24.29;59.81;100263.19;5012922;28;20058;-60
2022/08/15 09:52:10;;;;;;;23.08;13.00;;;;;;;24.45;59.02;100256.19;5013266;28;20037;-60
2022/08/15 09:54:50;;;;;;;20.70;12.73;;;;;;;24.67;57.40;100267.31;5012973;28;20036;-60
2022/08/15 09:57:40;;;;;;;20.13;13.35;;;;;;;24.76;56.84;100262.00;5012964;28;20030;-60
2022/08/15 10:00:21;;;;;;;21.25;13.50;;;;;;;24.77;56.34;100272.09;5012846;28;20441;-60
2022/08/15 10:02:50;;;;;;;20.50;12.70;;;;;;;24.83;55.99;100264.75;4994707;28;20103;-60
2022/08/15 10:05:45;;;;;;;21.08;12.75;;;;;;;25.08;55.89;100280.66;5012560;28;20121;-60
2022/08/15 10:08:14;;;;;;;22.20;12.80;;;;;;;25.15;55.67;100263.63;5012220;28;20070;-59
2022/08/15 10:10:52;;;;;;;20.80;12.77;;;;;;;25.29;55.22;100265.50;5012318;28;20391;-59
2022/08/15 10:13:42;;;;;;;19.83;13.02;;;;;;;25.48;54.82;100266.91;5012420;28;20034;-59
2022/08/15 10:16:41;;;;;;;21.50;13.85;;;;;;;25.79;54.39;100266.13;5012436;28;20038;-60
2022/08/15 10:19:25;;;;;;;21.80;13.45;;;;;;;25.92;53.72;100258.63;4979866;28;20462;-60
2022/08/15 10:21:51;;;;;;;;;;;;;;;26.09;52.78;100262.47;5012952;28;20041;-60
2022/08/15 10:24:38;;;;;;;22.42;13.77;;;;;;;26.01;53.10;100270.25;4994512;28;19921;-60
2022/08/15 10:27:09;;;;;;;22.85;13.60;;;;;;;25.95;53.44;100268.31;5012251;28;20537;-60
2022/08/15 10:29:37;;;;;;;22.33;13.07;;;;;;;25.89;53.39;100262.31;5012170;28;20104;-59
2022/08/15 10:32:03;;;;;;;20.38;12.63;;;;;;;25.89;53.66;100265.16;5012239;28;20096;-59
2022/08/15 10:34:37;;;;;;;22.27;13.32;;;;;;;25.76;53.30;100267.75;5011800;28;20057;-59
2022/08/15 10:37:24;;;;;;;20.45;13.40;;;;;;;25.81;53.70;100270.13;5011976;28;20038;-59
2022/08/15 10:40:20;;;;;;;21.40;12.80;;;;;;;25.83;53.42;100273.34;5011984;28;20061;-60
2022/08/15 10:43:01;;;;;;;19.83;13.25;;;;;;;25.78;53.86;100285.13;5011415;28;20058;-60
2022/08/15 10:45:41;;;;;;;21.10;12.80;;;;;;;25.88;53.62;100283.41;5012092;28;20489;-60
2022/08/15 10:48:26;;;;;;;21.00;12.88;;;;;;;25.96;53.90;100278.41;5011900;28;20131;-60
2022/08/15 10:50:56;;;;;;;20.25;12.88;;;;;;;25.95;53.79;100279.63;5011985;28;20040;-60
2022/08/15 10:53:28;;;;;;;32.10;19.95;;;;;;;25.80;53.27;100270.53;5011685;28;20054;-60
2022/08/15 10:56:07;;;;;;;27.85;18.75;;;;;;;25.72;53.75;100283.19;5012025;28;20034;-60
2022/08/15 10:58:33;;;;;;;22.73;14.18;;;;;;;25.49;54.19;100291.16;5011879;28;20022;-60
2022/08/15 11:01:06;;;;;;;22.75;13.57;;;;;;;25.35;54.77;100294.94;5011998;28;20105;-60
2022/08/15 11:03:53;;;;;;;22.33;14.15;;;;;;;25.26;54.91;100297.47;5012071;28;20036;-60
2022/08/15 11:06:21;;;;;;;22.02;13.35;;;;;;;25.16;55.37;100293.53;5012086;28;20044;-60
2022/08/15 11:08:50;;;;;;;20.90;12.88;;;;;;;25.03;55.98;100281.13;5011808;28;20026;-60
2022/08/15 11:11:19;;;;;;;21.10;13.02;;;;;;;24.92;56.14;100286.91;5011872;28;20435;-59
2022/08/15 11:13:51;;;;;;;22.25;13.05;;;;;;;25.00;56.25;100293.28;4994069;28;20041;-60
2022/08/15 11:16:29;;;;;;;20.73;13.00;;;;;;;24.99;56.44;100298.16;5011762;28;20029;-59
2022/08/15 11:18:56;;;;;;;21.00;13.05;;;;;;;24.92;56.11;100290.53;5011769;28;20489;-59
2022/08/15 11:21:46;;;;;;;20.73;13.00;;;;;;;24.95;56.54;100299.41;5012199;28;20044;-59
2022/08/15 11:24:12;;;;;;;22.52;13.13;;;;;;;24.95;56.11;100293.75;4994135;28;20045;-59
2022/08/15 11:26:41;;;;;;;22.95;13.57;;;;;;;24.92;56.07;100299.03;5012266;28;20123;-60
2022/08/15 11:29:22;;;;;;;21.40;12.95;;;;;;;25.00;56.18;100294.09;5011975;28;20068;-60
2022/08/15 11:31:52;;;;;;;22.65;13.38;;;;;;;25.18;55.89;100305.22;5011687;28;20030;-60
2022/08/15 11:34:26;;;;;;;21.13;13.10;;;;;;;25.36;55.40;100305.03;5011773;28;20022;-60
2022/08/15 11:36:57;;;;;;;21.95;12.98;;;;;;;25.48;55.09;100306.53;5011841;28;20022;-60
2022/08/15 11:39:25;;;;;;;20.05;13.00;;;;;;;25.59;54.20;100303.59;5011904;28;20084;-60
2022/08/15 11:42:03;;;;;;;21.98;13.05;;;;;;;25.75;54.25;100300.13;4993620;28;20485;-59